createdAt,value
2019-03-26T00:01:02.568Z,13.60
2019-03-26T00:03:33.207Z,12.70
2019-03-26T00:06:03.743Z,12.57
2019-03-26T00:08:34.249Z,12.23
2019-03-26T00:11:05.010Z,11.90
2019-03-26T00:13:35.592Z,10.00
2019-03-26T00:16:06.122Z,11.93
2019-03-26T00:18:36.594Z,11.73
2019-03-26T00:21:07.131Z,10.70
2019-03-26T00:23:37.797Z,12.70
2019-03-26T00:26:08.256Z,11.90
2019-03-26T00:28:38.809Z,10.20
2019-03-26T00:31:09.276Z,10.60
2019-03-26T00:33:39.756Z,10.67
2019-03-26T00:36:10.219Z,10.33
2019-03-26T00:38:40.804Z,9.93
2019-03-26T00:41:11.483Z,10.27
2019-03-26T00:43:41.980Z,11.13
2019-03-26T00:46:12.498Z,11.07
2019-03-26T00:48:43.011Z,9.83
2019-03-26T00:51:13.545Z,11.17
2019-03-26T00:53:44.136Z,10.13
2019-03-26T00:56:14.634Z,10.53
2019-03-26T00:58:45.110Z,10.70
2019-03-26T01:01:17.136Z,10.93
2019-03-26T01:03:47.630Z,10.90
2019-03-26T01:06:18.471Z,11.20
2019-03-26T01:08:49.052Z,10.17
2019-03-26T01:11:19.515Z,10.70
2019-03-26T01:13:50.179Z,10.20
2019-03-26T01:16:20.665Z,10.90
2019-03-26T01:18:51.163Z,11.27
2019-03-26T01:21:22.315Z,11.23
2019-03-26T01:23:52.818Z,11.00
2019-03-26T01:26:23.378Z,11.10
2019-03-26T01:28:53.868Z,10.47
2019-03-26T01:31:24.397Z,10.23
2019-03-26T01:33:54.933Z,11.50
2019-03-26T01:36:25.455Z,12.37
2019-03-26T01:38:56.022Z,11.73
2019-03-26T01:41:26.568Z,12.13
2019-03-26T01:43:57.899Z,10.20
2019-03-26T01:46:28.435Z,12.40
2019-03-26T01:48:58.963Z,11.40
2019-03-26T01:51:29.443Z,11.77
2019-03-26T01:54:00.015Z,11.80
2019-03-26T01:56:31.474Z,12.83
2019-03-26T01:59:02.055Z,12.87
2019-03-26T02:01:32.611Z,11.20
2019-03-26T02:04:03.272Z,12.30
2019-03-26T02:06:33.944Z,11.90
2019-03-26T02:09:05.102Z,12.13
2019-03-26T02:11:36.014Z,13.07
2019-03-26T02:14:06.536Z,13.27
2019-03-26T02:16:37.078Z,14.13
2019-03-26T02:19:07.567Z,14.27
2019-03-26T02:21:38.032Z,14.07
2019-03-26T02:24:08.617Z,14.00
2019-03-26T02:26:39.207Z,16.53
2019-03-26T02:29:09.899Z,14.83
2019-03-26T02:31:41.579Z,15.27
2019-03-26T02:34:12.220Z,15.37
2019-03-26T02:36:42.798Z,18.17
2019-03-26T02:39:13.344Z,16.50
2019-03-26T02:41:43.869Z,18.17
2019-03-26T02:44:14.467Z,16.67
2019-03-26T02:46:44.946Z,18.20
2019-03-26T02:49:15.531Z,17.63
2019-03-26T02:51:45.988Z,18.37
2019-03-26T02:54:16.589Z,18.43
2019-03-26T02:56:47.086Z,17.57
2019-03-26T02:59:17.539Z,16.70
2019-03-26T03:01:48.068Z,17.33
2019-03-26T03:04:18.743Z,16.90
2019-03-26T03:06:49.258Z,15.90
2019-03-26T03:09:19.754Z,16.70
2019-03-26T03:11:50.280Z,16.00
2019-03-26T03:14:20.753Z,12.20
2019-03-26T03:16:51.492Z,12.97
2019-03-26T03:19:21.957Z,11.50
2019-03-26T03:21:52.512Z,9.30
2019-03-26T03:24:23.116Z,9.23
2019-03-26T03:26:53.592Z,9.17
2019-03-26T03:29:24.066Z,8.80
2019-03-26T03:31:54.639Z,7.87
2019-03-26T03:34:25.178Z,8.57
2019-03-26T03:36:55.798Z,8.97
2019-03-26T03:39:26.256Z,8.03
2019-03-26T03:41:56.922Z,10.03
2019-03-26T03:44:27.457Z,6.93
2019-03-26T03:46:58.081Z,5.90
2019-03-26T03:49:28.694Z,7.03
2019-03-26T03:51:59.248Z,6.50
2019-03-26T03:54:29.717Z,6.73
2019-03-26T03:57:00.263Z,5.27
2019-03-26T03:59:30.832Z,5.70
2019-03-26T04:02:01.313Z,6.03
2019-03-26T04:04:31.842Z,6.20
2019-03-26T04:07:02.342Z,6.00
2019-03-26T04:09:32.772Z,5.40
2019-03-26T04:12:03.419Z,6.90
2019-03-26T04:14:34.040Z,5.30
2019-03-26T04:17:04.696Z,5.60
2019-03-26T04:19:35.183Z,6.70
2019-03-26T04:22:05.796Z,5.57
2019-03-26T04:24:36.282Z,5.20
2019-03-26T04:27:06.765Z,5.00
2019-03-26T04:29:37.269Z,3.97
2019-03-26T04:32:07.750Z,5.13
2019-03-26T04:34:38.194Z,5.30
2019-03-26T04:37:08.683Z,4.50
2019-03-26T04:39:39.199Z,5.23
2019-03-26T04:42:09.659Z,5.10
2019-03-26T04:44:40.189Z,3.97
2019-03-26T04:47:10.627Z,3.27
2019-03-26T04:49:41.054Z,2.87
2019-03-26T04:52:11.546Z,3.23
2019-03-26T04:54:42.074Z,2.97
2019-03-26T04:57:12.635Z,2.30
2019-03-26T04:59:43.114Z,3.23
2019-03-26T05:02:13.757Z,4.50
2019-03-26T05:04:44.193Z,3.43
2019-03-26T05:07:14.732Z,3.37
2019-03-26T05:09:45.286Z,2.90
2019-03-26T05:12:15.736Z,2.60
2019-03-26T05:14:46.276Z,3.07
2019-03-26T05:17:16.744Z,3.20
2019-03-26T05:19:47.154Z,3.60
2019-03-26T05:22:23.958Z,3.13
2019-03-26T05:24:49.694Z,2.90
2019-03-26T05:27:20.226Z,3.20
2019-03-26T05:29:50.669Z,3.00
2019-03-26T05:32:21.205Z,3.10
2019-03-26T05:34:51.676Z,3.23
2019-03-26T05:37:22.201Z,2.80
2019-03-26T05:39:52.731Z,2.90
2019-03-26T05:42:23.186Z,4.20
2019-03-26T05:44:53.636Z,2.70
2019-03-26T05:47:24.125Z,3.33
2019-03-26T05:49:54.620Z,3.20
2019-03-26T05:52:25.098Z,4.13
2019-03-26T05:54:57.023Z,4.00
2019-03-26T05:57:27.520Z,4.00
2019-03-26T05:59:58.060Z,3.40
2019-03-26T06:02:28.618Z,3.10
2019-03-26T06:04:59.147Z,3.17
2019-03-26T06:07:31.292Z,3.67
2019-03-26T06:10:01.906Z,3.30
2019-03-26T06:12:32.446Z,4.73
2019-03-26T06:15:03.004Z,3.37
2019-03-26T06:17:33.494Z,2.80
2019-03-26T06:20:04.107Z,3.70
2019-03-26T06:22:34.663Z,4.00
2019-03-26T06:25:05.437Z,3.43
2019-03-26T06:27:35.968Z,4.90
2019-03-26T06:30:08.173Z,3.20
2019-03-26T06:32:38.693Z,3.53
2019-03-26T06:35:10.284Z,5.00
2019-03-26T06:37:40.813Z,3.10
2019-03-26T06:40:11.347Z,3.50
2019-03-26T06:42:41.935Z,3.77
2019-03-26T06:45:12.549Z,2.77
2019-03-26T06:47:43.174Z,3.57
2019-03-26T06:50:13.654Z,3.10
2019-03-26T06:52:44.223Z,3.17
2019-03-26T06:55:14.682Z,3.03
2019-03-26T06:57:45.134Z,3.30
2019-03-26T07:00:15.676Z,2.83
2019-03-26T07:02:46.239Z,3.70
2019-03-26T07:05:16.784Z,2.90
2019-03-26T07:07:47.254Z,3.30
2019-03-26T07:10:21.301Z,3.40
2019-03-26T07:12:51.805Z,3.90
2019-03-26T07:15:22.250Z,3.00
2019-03-26T07:17:52.722Z,3.30
2019-03-26T07:20:23.317Z,4.17
2019-03-26T07:22:54.526Z,3.60
2019-03-26T07:25:24.942Z,2.73
2019-03-26T07:27:55.494Z,3.23
2019-03-26T07:30:39.729Z,2.20
2019-03-26T07:33:10.303Z,2.90
2019-03-26T07:35:40.824Z,2.83
2019-03-26T07:38:11.323Z,2.93
2019-03-26T07:43:11.343Z,3.27
2019-03-26T07:45:41.784Z,2.93
2019-03-26T07:48:12.245Z,2.60
2019-03-26T07:50:42.674Z,2.60
2019-03-26T07:53:13.149Z,2.93
2019-03-26T07:55:43.981Z,3.07
2019-03-26T07:58:14.653Z,2.50
2019-03-26T08:00:45.128Z,2.60
2019-03-26T08:03:15.600Z,3.17
2019-03-26T08:05:46.061Z,2.33
2019-03-26T08:08:16.581Z,3.43
2019-03-26T08:10:47.022Z,2.33
2019-03-26T08:13:17.571Z,2.70
2019-03-26T08:15:48.094Z,2.90
2019-03-26T08:18:18.543Z,2.90
2019-03-26T08:20:49.019Z,2.50
2019-03-26T08:23:19.503Z,2.30
2019-03-26T08:25:49.961Z,2.43
2019-03-26T08:28:20.443Z,2.70
2019-03-26T08:30:50.918Z,3.43
2019-03-26T08:33:23.388Z,2.17
2019-03-26T08:35:53.479Z,3.50
2019-03-26T08:38:23.923Z,3.20
2019-03-26T08:40:54.496Z,2.87
2019-03-26T08:43:24.976Z,2.80
2019-03-26T08:45:55.463Z,2.80
2019-03-26T08:48:25.915Z,2.50
2019-03-26T08:50:56.378Z,5.37
2019-03-26T08:53:26.858Z,3.30
2019-03-26T08:55:57.411Z,3.17
2019-03-26T08:58:27.851Z,2.50
2019-03-26T09:00:58.411Z,2.97
2019-03-26T09:03:28.864Z,3.70
2019-03-26T09:05:59.330Z,3.10
2019-03-26T09:08:29.821Z,2.43
2019-03-26T09:11:00.290Z,2.70
2019-03-26T09:13:29.928Z,2.90
2019-03-26T09:16:00.579Z,3.37
2019-03-26T09:18:31.017Z,2.93
2019-03-26T09:21:01.500Z,2.60
2019-03-26T09:23:32.014Z,2.63
2019-03-26T09:26:02.667Z,2.47
2019-03-26T09:28:33.245Z,2.53
2019-03-26T09:31:03.732Z,2.33
2019-03-26T09:33:34.196Z,2.37
2019-03-26T09:36:04.679Z,2.90
2019-03-26T09:38:39.151Z,3.20
2019-03-26T09:43:33.420Z,2.57
2019-03-26T09:46:03.944Z,2.43
2019-03-26T09:48:34.489Z,2.73
2019-03-26T09:51:05.011Z,3.20
2019-03-26T09:53:35.495Z,3.07
2019-03-26T09:56:05.960Z,2.80
2019-03-26T09:58:36.430Z,2.90
2019-03-26T10:01:06.905Z,2.60
2019-03-26T10:03:37.372Z,2.00
2019-03-26T10:06:07.846Z,2.90
2019-03-26T10:08:51.443Z,2.83
2019-03-26T10:11:10.416Z,2.80
2019-03-26T10:13:40.905Z,2.53
2019-03-26T10:16:11.376Z,2.00
2019-03-26T10:18:41.902Z,2.90
2019-03-26T10:21:12.358Z,2.43
2019-03-26T10:23:42.884Z,2.63
2019-03-26T10:26:13.457Z,2.73
2019-03-26T10:28:43.967Z,2.90
2019-03-26T10:31:14.431Z,3.37
2019-03-26T10:33:45.142Z,3.17
2019-03-26T10:36:15.626Z,2.67
2019-03-26T10:38:46.190Z,2.83
2019-03-26T10:41:18.712Z,3.13
2019-03-26T10:43:48.812Z,3.90
2019-03-26T10:46:19.430Z,2.80
2019-03-26T10:48:49.888Z,3.23
2019-03-26T10:51:20.401Z,2.90
2019-03-26T10:53:50.883Z,2.60
2019-03-26T10:56:21.442Z,2.93
2019-03-26T10:58:51.895Z,2.83
2019-03-26T11:01:22.380Z,3.37
2019-03-26T11:03:53.014Z,3.40
2019-03-26T11:06:23.539Z,3.80
2019-03-26T11:08:54.086Z,3.63
2019-03-26T11:11:24.518Z,3.40
2019-03-26T11:13:54.962Z,3.43
2019-03-26T11:16:25.470Z,5.43
2019-03-26T11:18:55.999Z,3.60
2019-03-26T11:21:25.548Z,3.37
2019-03-26T11:23:56.023Z,3.30
2019-03-26T11:26:26.480Z,4.10
2019-03-26T11:28:57.018Z,3.87
2019-03-26T11:31:29.990Z,3.60
2019-03-26T11:33:59.574Z,4.30
2019-03-26T11:36:30.017Z,3.33
2019-03-26T11:39:00.479Z,3.20
2019-03-26T11:41:31.010Z,4.03
2019-03-26T11:44:04.566Z,3.07
2019-03-26T11:46:33.550Z,4.10
2019-03-26T11:49:04.034Z,3.70
2019-03-26T11:51:34.509Z,3.17
2019-03-26T11:54:04.991Z,4.00
2019-03-26T11:56:35.593Z,3.00
2019-03-26T11:59:06.098Z,3.50
2019-03-26T12:01:36.629Z,3.97
2019-03-26T12:04:07.098Z,3.60
2019-03-26T12:06:37.649Z,3.10
2019-03-26T12:09:08.783Z,3.20
2019-03-26T12:11:39.322Z,3.17
2019-03-26T12:14:09.779Z,2.80
2019-03-26T12:16:40.257Z,3.47
2019-03-26T12:19:10.786Z,3.20
2019-03-26T12:21:41.246Z,3.00
2019-03-26T12:24:11.771Z,2.67
2019-03-26T12:26:42.215Z,3.30
2019-03-26T12:29:12.823Z,3.03
2019-03-26T12:31:43.274Z,3.07
2019-03-26T12:34:13.759Z,3.30
2019-03-26T12:36:44.209Z,3.63
2019-03-26T12:39:14.674Z,3.13
2019-03-26T12:41:45.127Z,3.03
2019-03-26T12:44:15.798Z,4.23
2019-03-26T12:46:46.230Z,3.07
2019-03-26T12:51:46.272Z,3.60
2019-03-26T12:54:16.766Z,3.63
2019-03-26T12:56:47.307Z,3.23
2019-03-26T12:59:17.778Z,4.03
2019-03-26T13:01:48.216Z,2.90
2019-03-26T13:04:18.683Z,3.50
2019-03-26T13:06:49.400Z,3.60
2019-03-26T13:09:19.851Z,2.90
2019-03-26T13:11:50.309Z,3.10
2019-03-26T13:14:20.778Z,3.80
2019-03-26T13:16:51.243Z,2.83
2019-03-26T13:19:21.703Z,3.60
2019-03-26T13:21:52.150Z,2.70
2019-03-26T13:24:22.731Z,3.03
2019-03-26T13:26:53.182Z,3.10
2019-03-26T13:29:23.725Z,3.20
2019-03-26T13:31:54.158Z,2.60
2019-03-26T13:34:24.643Z,2.70
2019-03-26T13:36:55.077Z,3.23
2019-03-26T13:39:25.618Z,2.70
2019-03-26T13:41:56.083Z,2.80
2019-03-26T13:44:26.534Z,2.83
2019-03-26T13:46:57.055Z,3.00
2019-03-26T13:49:27.540Z,3.10
2019-03-26T13:51:58.067Z,3.10
2019-03-26T13:54:28.642Z,3.00
2019-03-26T13:56:59.168Z,3.07
2019-03-26T13:59:29.619Z,3.30
2019-03-26T14:01:58.282Z,2.70
2019-03-26T14:04:28.919Z,3.00
2019-03-26T14:06:59.592Z,2.80
2019-03-26T14:09:30.048Z,3.03
2019-03-26T14:12:00.501Z,2.90
2019-03-26T14:14:31.040Z,2.90
2019-03-26T14:17:01.654Z,2.90
2019-03-26T14:19:32.148Z,3.47
2019-03-26T14:22:02.726Z,3.00
2019-03-26T14:24:33.189Z,3.00
2019-03-26T14:27:03.646Z,3.20
2019-03-26T14:29:34.115Z,3.60
2019-03-26T14:32:04.662Z,2.90
2019-03-26T14:34:36.850Z,3.07
2019-03-26T14:37:08.191Z,3.67
2019-03-26T14:39:38.794Z,3.20
2019-03-26T14:42:09.248Z,2.77
2019-03-26T14:44:39.769Z,3.20
2019-03-26T14:47:10.160Z,3.10
2019-03-26T14:49:40.755Z,3.23
2019-03-26T14:52:11.201Z,2.87
2019-03-26T14:54:41.693Z,3.30
2019-03-26T14:57:12.151Z,3.33
2019-03-26T14:59:42.583Z,2.77
2019-03-26T15:02:13.099Z,2.87
2019-03-26T15:04:43.626Z,3.00
2019-03-26T15:07:14.111Z,2.90
2019-03-26T15:09:43.728Z,3.10
2019-03-26T15:12:14.253Z,2.70
2019-03-26T15:14:44.778Z,2.70
2019-03-26T15:17:15.400Z,2.90
2019-03-26T15:19:45.853Z,3.00
2019-03-26T15:22:16.307Z,2.73
2019-03-26T15:24:46.794Z,3.37
2019-03-26T15:27:17.303Z,3.00
2019-03-26T15:29:47.834Z,3.13
2019-03-26T15:32:18.282Z,4.23
2019-03-26T15:34:48.837Z,2.63
2019-03-26T15:37:19.327Z,3.27
2019-03-26T15:39:49.932Z,3.03
2019-03-26T15:42:20.458Z,3.37
2019-03-26T15:44:50.956Z,3.20
2019-03-26T15:47:24.538Z,3.10
2019-03-26T15:49:56.457Z,2.80
2019-03-26T15:52:27.808Z,2.97
2019-03-26T15:54:58.312Z,4.20
2019-03-26T15:57:29.298Z,3.90
2019-03-26T16:00:00.396Z,3.17
2019-03-26T16:02:31.013Z,3.20
2019-03-26T16:05:01.560Z,2.70
2019-03-26T16:07:34.203Z,3.80
2019-03-26T16:10:08.174Z,2.20
2019-03-26T16:12:41.231Z,3.10
2019-03-26T16:15:10.957Z,2.73
2019-03-26T16:17:41.729Z,2.67
2019-03-26T16:20:13.001Z,2.60
2019-03-26T16:22:44.117Z,3.10
2019-03-26T16:25:16.031Z,2.80
2019-03-26T16:27:48.087Z,2.77
2019-03-26T16:30:18.577Z,2.70
2019-03-26T16:32:50.835Z,2.60
2019-03-26T16:35:21.538Z,2.53
2019-03-26T16:37:52.057Z,2.90
2019-03-26T16:40:22.664Z,2.93
2019-03-26T16:42:53.145Z,2.50
2019-03-26T16:45:23.650Z,2.90
2019-03-26T16:47:54.107Z,2.30
2019-03-26T16:50:24.662Z,2.83
2019-03-26T16:52:55.253Z,2.70
2019-03-26T16:55:25.783Z,2.70
2019-03-26T16:57:56.342Z,2.60
2019-03-26T17:00:35.611Z,2.63
2019-03-26T17:03:06.046Z,2.40
2019-03-26T17:05:36.520Z,3.23
2019-03-26T17:08:07.109Z,2.73
2019-03-26T17:10:37.758Z,3.20
2019-03-26T17:13:08.331Z,3.30
2019-03-26T17:15:38.802Z,3.70
2019-03-26T17:18:09.442Z,2.60
2019-03-26T17:20:40.022Z,3.27
2019-03-26T17:23:10.496Z,2.63
2019-03-26T17:25:41.054Z,2.70
2019-03-26T17:28:11.548Z,3.30
2019-03-26T17:30:42.041Z,3.20
2019-03-26T17:33:12.547Z,3.13
2019-03-26T17:35:43.049Z,2.97
2019-03-26T17:38:13.622Z,3.00
2019-03-26T17:40:44.168Z,2.57
2019-03-26T17:43:14.769Z,4.20
2019-03-26T17:45:45.433Z,3.20
2019-03-26T17:48:15.887Z,3.50
2019-03-26T17:50:46.672Z,3.00
2019-03-26T17:53:17.186Z,2.77
2019-03-26T17:55:47.711Z,3.07
2019-03-26T17:58:18.310Z,3.20
2019-03-26T18:00:48.911Z,3.00
2019-03-26T18:03:26.126Z,3.50
2019-03-26T18:05:51.595Z,3.10
2019-03-26T18:08:22.154Z,3.43
2019-03-26T18:10:52.733Z,3.60
2019-03-26T18:13:23.248Z,4.07
2019-03-26T18:15:53.797Z,2.90
2019-03-26T18:18:24.351Z,3.30
2019-03-26T18:20:54.966Z,3.53
2019-03-26T18:23:25.524Z,3.80
2019-03-26T18:25:56.092Z,3.20
2019-03-26T18:28:26.583Z,2.77
2019-03-26T18:30:58.381Z,3.10
2019-03-26T18:33:28.971Z,2.90
2019-03-26T18:35:59.495Z,3.37
2019-03-26T18:38:30.147Z,3.57
2019-03-26T18:41:00.579Z,4.90
2019-03-26T18:43:31.183Z,4.37
2019-03-26T18:46:01.677Z,4.50
2019-03-26T18:48:32.153Z,4.57
2019-03-26T18:51:02.628Z,4.63
2019-03-26T18:53:34.954Z,4.53
2019-03-26T18:56:05.812Z,4.80
2019-03-26T18:58:36.480Z,5.50
2019-03-26T19:01:06.970Z,6.00
2019-03-26T19:03:39.228Z,5.50
2019-03-26T19:06:09.971Z,6.47
2019-03-26T19:08:40.431Z,5.13
2019-03-26T19:11:10.871Z,5.90
2019-03-26T19:13:41.331Z,5.80
2019-03-26T19:16:11.852Z,6.00
2019-03-26T19:18:42.327Z,6.10
2019-03-26T19:21:13.998Z,5.90
2019-03-26T19:23:46.196Z,6.17
2019-03-26T19:26:16.804Z,6.90
2019-03-26T19:28:47.617Z,7.10
2019-03-26T19:31:18.397Z,5.50
2019-03-26T19:33:48.865Z,5.87
2019-03-26T19:36:19.399Z,5.13
2019-03-26T19:38:49.980Z,5.30
2019-03-26T19:41:20.659Z,4.77
2019-03-26T19:43:51.308Z,6.13
2019-03-26T19:46:21.750Z,4.97
2019-03-26T19:48:52.230Z,5.00
2019-03-26T19:51:22.678Z,4.73
2019-03-26T19:53:54.266Z,4.70
2019-03-26T19:56:24.745Z,4.67
2019-03-26T19:58:55.287Z,5.00
2019-03-26T20:01:25.896Z,5.30
2019-03-26T20:03:56.326Z,4.70
2019-03-26T20:06:26.863Z,5.07
2019-03-26T20:08:57.324Z,5.40
2019-03-26T20:11:27.767Z,4.87
2019-03-26T20:13:58.265Z,4.63
2019-03-26T20:16:41.109Z,4.60
2019-03-26T20:19:00.959Z,3.37
2019-03-26T20:21:31.445Z,3.57
2019-03-26T20:24:01.923Z,4.10
2019-03-26T20:26:32.391Z,4.07
2019-03-26T20:29:02.919Z,3.80
2019-03-26T20:31:33.343Z,4.20
2019-03-26T20:34:03.819Z,4.40
2019-03-26T20:36:34.246Z,5.20
2019-03-26T20:39:06.363Z,4.63
2019-03-26T20:41:36.829Z,5.13
2019-03-26T20:44:07.361Z,4.70
2019-03-26T20:46:37.834Z,4.83
2019-03-26T20:49:08.337Z,6.00
2019-03-26T20:51:38.854Z,5.00
2019-03-26T20:54:09.508Z,5.00
2019-03-26T20:56:40.899Z,6.13
2019-03-26T20:59:11.760Z,5.27
2019-03-26T21:01:45.387Z,7.43
2019-03-26T21:04:14.351Z,6.10
2019-03-26T21:06:44.784Z,5.33
2019-03-26T21:09:15.325Z,6.20
2019-03-26T21:11:45.788Z,6.57
2019-03-26T21:14:16.364Z,7.03
2019-03-26T21:16:46.887Z,7.30
2019-03-26T21:19:18.336Z,6.70
2019-03-26T21:21:48.855Z,5.90
2019-03-26T21:24:19.322Z,7.00
2019-03-26T21:26:49.766Z,6.80
2019-03-26T21:29:20.241Z,7.40
2019-03-26T21:31:50.832Z,8.23
2019-03-26T21:34:30.365Z,6.70
2019-03-26T21:36:53.450Z,6.43
2019-03-26T21:39:24.118Z,7.70
2019-03-26T21:41:54.633Z,8.67
2019-03-26T21:44:25.138Z,7.43
2019-03-26T21:46:55.587Z,8.40
2019-03-26T21:49:26.207Z,8.03
2019-03-26T21:51:56.662Z,7.77
2019-03-26T21:54:27.162Z,8.50
2019-03-26T21:56:57.705Z,8.33
2019-03-26T21:59:28.233Z,7.97
2019-03-26T22:01:58.711Z,7.80
2019-03-26T22:04:29.192Z,9.87
2019-03-26T22:06:59.691Z,9.50
2019-03-26T22:09:30.162Z,8.53
2019-03-26T22:12:00.681Z,8.30
2019-03-26T22:14:31.152Z,7.90
2019-03-26T22:17:01.598Z,9.87
2019-03-26T22:19:32.094Z,10.37
2019-03-26T22:22:02.559Z,9.37
2019-03-26T22:24:33.154Z,10.30
2019-03-26T22:27:03.680Z,9.53
2019-03-26T22:29:34.506Z,8.87
2019-03-26T22:32:05.049Z,9.30
2019-03-26T22:34:35.536Z,8.47
2019-03-26T22:37:06.007Z,9.63
2019-03-26T22:39:36.503Z,9.90
2019-03-26T22:42:06.950Z,10.20
2019-03-26T22:44:37.500Z,9.40
2019-03-26T22:47:07.953Z,8.50
2019-03-26T22:49:38.549Z,8.93
2019-03-26T22:52:09.026Z,9.03
2019-03-26T22:54:39.541Z,8.70
2019-03-26T22:57:09.999Z,8.43
2019-03-26T22:59:40.522Z,8.33
2019-03-26T23:02:10.964Z,8.13
2019-03-26T23:04:41.637Z,7.13
2019-03-26T23:07:12.149Z,7.33
2019-03-26T23:09:42.809Z,8.10
2019-03-26T23:12:13.250Z,7.77
2019-03-26T23:14:45.253Z,7.90
2019-03-26T23:17:15.864Z,7.47
2019-03-26T23:19:46.389Z,7.00
2019-03-26T23:22:16.872Z,7.43
2019-03-26T23:24:47.330Z,8.10
2019-03-26T23:27:17.888Z,6.87
2019-03-26T23:29:48.343Z,7.27
2019-03-26T23:32:18.798Z,6.93
2019-03-26T23:34:49.378Z,8.07
2019-03-26T23:37:19.829Z,8.07
2019-03-26T23:39:50.308Z,9.57
2019-03-26T23:42:20.846Z,7.87
2019-03-26T23:44:58.239Z,6.63
2019-03-26T23:47:23.637Z,6.60
2019-03-26T23:49:54.181Z,6.47
2019-03-26T23:52:24.718Z,6.20
2019-03-26T23:54:55.206Z,5.93
2019-03-26T23:57:25.733Z,7.47
2019-03-26T23:59:56.226Z,7.00
